Gonzalez Chaves, Argentina
Current Conditions -  °F | °C
As of 5:00 AM on Monday 24 Nov 2014 (Local Time) from SAZM Reporting Station
Overcast Overcast  
Wind Chill: 61°   Ceiling: 3000
Heat Index: 61°   Visibility: 2.5mi
Dew Point: 59°   Wind: 9mph
Humidity: 94%   Direction: 50°NE
Pressure: 29.68"   Gusts: NA
Location:  38.04°S, 60.11°W
Report Text: SAZM 240800Z 05008KT 4000 OVC030 FEW045CB16/15 Q1005
Loading
Personal Weather Stations






























Interactive Weather Map New forecast layout! Learn more

10-Day Weather Forecast

Advertisements
Track Severe Weather on mobile